Time;durP1;ratioP1;P1;durP2;ratioP2;P2;SDS_P1;SDS_P2;PMS_P1;PMS_P2;Temp;Humidity;BMP_temperature;BMP_pressure;BME280_temperature;BME280_humidity;BME280_pressure;Samples;Min_cycle;Max_cycle;Signal;HPM_P1;HPM_P2
2022/03/05 00:00:24;;;;;;;11.23;8.40;;;21.40;43.40;;;;;;4999026;28;88477;-69
2022/03/05 00:02:52;;;;;;;10.13;7.33;;;21.40;43.40;;;;;;4999629;28;90070;-68
2022/03/05 00:05:21;;;;;;;9.47;7.47;;;21.40;43.40;;;;;;5001068;28;88844;-69
2022/03/05 00:07:49;;;;;;;10.50;7.00;;;21.30;43.40;;;;;;5003232;28;88351;-68
2022/03/05 00:10:19;;;;;;;7.90;6.13;;;21.40;43.40;;;;;;5002153;28;88641;-71
2022/03/05 00:12:48;;;;;;;8.83;5.47;;;21.30;43.20;;;;;;5002503;28;89551;-71
2022/03/05 00:15:16;;;;;;;6.13;5.27;;;21.30;43.20;;;;;;5002439;28;90025;-71
2022/03/05 00:17:44;;;;;;;6.93;5.07;;;21.30;43.00;;;;;;5003342;28;88594;-71
2022/03/05 00:20:12;;;;;;;5.83;4.43;;;21.30;42.80;;;;;;5003169;28;88474;-71
2022/03/05 00:22:40;;;;;;;5.90;4.10;;;21.20;42.60;;;;;;5003410;28;90725;-71
2022/03/05 00:25:10;;;;;;;4.97;3.90;;;21.20;42.50;;;;;;5003255;28;91889;-72
2022/03/05 00:27:38;;;;;;;4.30;3.90;;;21.20;42.40;;;;;;5002865;28;88247;-71
2022/03/05 00:30:08;;;;;;;5.33;3.50;;;21.20;42.20;;;;;;5002664;28;88449;-65
2022/03/05 00:32:36;;;;;;;44.27;21.03;;;21.10;42.00;;;;;;5002377;28;89456;-65
2022/03/05 00:35:05;;;;;;;180.93;84.33;;;21.10;41.90;;;;;;5001799;28;90091;-66
2022/03/05 00:37:33;;;;;;;334.63;149.73;;;21.10;41.80;;;;;;5001640;28;88368;-66
2022/03/05 00:40:01;;;;;;;388.87;186.17;;;21.10;41.70;;;;;;5000127;28;88262;-66
2022/03/05 00:42:29;;;;;;;411.00;208.57;;;21.10;41.70;;;;;;5000747;28;90648;-65
2022/03/05 00:44:57;;;;;;;331.30;157.40;;;21.10;41.60;;;;;;5000594;28;90042;-65
2022/03/05 00:47:26;;;;;;;273.20;131.33;;;21.10;41.60;;;;;;5000958;28;90180;-65
2022/03/05 00:49:54;;;;;;;278.93;132.57;;;21.10;41.50;;;;;;4999655;28;88532;-65
2022/03/05 00:52:22;;;;;;;354.40;177.30;;;21.10;41.40;;;;;;5000190;28;91240;-65
2022/03/05 00:54:50;;;;;;;284.30;149.27;;;21.10;41.30;;;;;;4999793;28;93174;-65
2022/03/05 00:57:18;;;;;;;282.90;138.77;;;21.10;41.20;;;;;;5000320;28;88401;-65
2022/03/05 00:59:46;;;;;;;271.23;135.77;;;21.10;41.20;;;;;;5000472;28;88512;-67
2022/03/05 01:02:14;;;;;;;263.47;126.43;;;21.10;41.20;;;;;;5000104;28;90608;-65
2022/03/05 01:04:43;;;;;;;251.17;124.17;;;21.10;41.30;;;;;;5000537;28;90133;-65
2022/03/05 01:07:12;;;;;;;240.37;116.77;;;21.10;41.40;;;;;;5000268;28;88391;-65
2022/03/05 01:09:40;;;;;;;236.60;116.90;;;21.10;41.40;;;;;;4999337;28;88440;-66
2022/03/05 01:12:09;;;;;;;212.87;110.70;;;21.10;41.50;;;;;;5000076;28;90489;-66
2022/03/05 01:14:37;;;;;;;219.57;111.43;;;21.10;41.50;;;;;;5000272;28;89464;-65
2022/03/05 01:17:06;;;;;;;208.27;102.57;;;21.10;41.60;;;;;;5000233;28;88456;-65
2022/03/05 01:19:34;;;;;;;205.90;104.83;;;21.10;41.70;;;;;;4999700;28;88448;-67
2022/03/05 01:22:05;;;;;;;195.70;102.07;;;21.00;41.60;;;;;;4979124;28;88328;-65
2022/03/05 01:24:33;;;;;;;193.03;94.23;;;21.00;41.70;;;;;;4979721;28;90085;-65
2022/03/05 01:27:01;;;;;;;179.60;90.20;;;21.00;41.70;;;;;;4981238;28;88260;-66
2022/03/05 01:29:28;;;;;;;171.53;89.00;;;21.00;41.80;;;;;;4996950;28;88682;-66
2022/03/05 01:31:56;;;;;;;177.63;88.73;;;21.10;42.00;;;;;;5001432;28;90720;-65
2022/03/05 01:34:25;;;;;;;158.43;85.13;;;21.10;42.00;;;;;;4999924;28;90279;-66
2022/03/05 01:36:53;;;;;;;164.13;83.80;;;21.10;42.00;;;;;;5000583;28;88571;-65
2022/03/05 01:39:23;;;;;;;155.40;80.93;;;21.10;42.10;;;;;;5000777;28;88408;-65
2022/03/05 01:41:54;;;;;;;149.30;75.23;;;21.00;42.10;;;;;;5000781;28;92137;-65
2022/03/05 01:44:22;;;;;;;146.47;76.37;;;21.00;42.10;;;;;;5000371;28;89112;-65
2022/03/05 01:46:51;;;;;;;155.37;76.77;;;21.00;42.20;;;;;;5001003;28;88547;-66
2022/03/05 01:49:19;;;;;;;141.73;71.40;;;21.00;42.20;;;;;;5000902;28;88575;-65
2022/03/05 01:51:47;;;;;;;140.40;66.50;;;21.00;42.30;;;;;;5001300;28;88971;-66
2022/03/05 01:54:15;;;;;;;130.60;66.97;;;21.00;42.30;;;;;;5000716;28;90062;-66
2022/03/05 01:56:55;;;;;;;129.90;69.00;;;21.00;42.40;;;;;;5001167;28;88401;-66
2022/03/05 01:59:23;;;;;;;129.03;62.30;;;20.90;42.40;;;;;;5001079;28;88581;-65
2022/03/05 02:01:51;;;;;;;124.97;61.33;;;20.90;42.40;;;;;;5001025;28;90733;-67
2022/03/05 02:04:19;;;;;;;111.83;58.30;;;20.90;42.50;;;;;;5000343;28;89964;-67
2022/03/05 02:06:47;;;;;;;112.60;56.80;;;20.90;42.50;;;;;;5002078;28;88311;-68
2022/03/05 02:09:15;;;;;;;104.23;55.80;;;20.90;42.60;;;;;;5000646;28;89122;-68
2022/03/05 02:11:45;;;;;;;101.60;54.20;;;20.90;42.60;;;;;;5000200;28;90702;-67
2022/03/05 02:14:16;;;;;;;106.17;54.47;;;20.90;42.60;;;;;;5000499;28;90053;-67
2022/03/05 02:16:44;;;;;;;102.10;52.77;;;20.90;42.70;;;;;;5000415;28;88280;-67
2022/03/05 02:19:12;;;;;;;95.67;51.33;;;20.90;42.70;;;;;;5000103;28;88448;-67
2022/03/05 02:21:41;;;;;;;244.73;97.77;;;20.80;42.60;;;;;;5000061;28;90652;-71
2022/03/05 02:24:09;;;;;;;161.03;75.07;;;20.80;42.80;;;;;;4999453;28;90126;-71
2022/03/05 02:26:37;;;;;;;120.57;56.40;;;20.80;42.80;;;;;;5000406;28;88365;-72
2022/03/05 02:29:05;;;;;;;93.70;44.77;;;20.80;43.30;;;;;;4998640;28;88599;-72
2022/03/05 02:31:33;;;;;;;69.03;32.90;;;20.80;42.60;;;;;;4999526;28;89603;-71
2022/03/05 02:34:01;;;;;;;61.67;30.40;;;20.70;42.40;;;;;;4999305;28;90465;-71
2022/03/05 02:36:29;;;;;;;63.57;31.03;;;20.60;42.10;;;;;;4999462;28;89153;-71
2022/03/05 02:38:58;;;;;;;55.13;26.23;;;20.60;42.00;;;;;;4999435;28;88612;-71
2022/03/05 02:41:26;;;;;;;56.70;26.83;;;20.50;41.70;;;;;;4998265;28;89580;-71
2022/03/05 02:43:54;;;;;;;50.17;23.33;;;20.50;41.60;;;;;;5000314;28;89973;-71
2022/03/05 02:46:26;;;;;;;39.60;21.47;;;20.50;41.50;;;;;;5000197;28;88445;-69
2022/03/05 02:48:54;;;;;;;44.93;20.43;;;20.40;41.30;;;;;;4999718;28;88453;-71
2022/03/05 02:51:22;;;;;;;43.70;21.90;;;20.40;41.20;;;;;;4999355;28;91160;-69
2022/03/05 02:53:50;;;;;;;40.30;19.50;;;20.40;41.10;;;;;;4999330;28;90083;-72
2022/03/05 02:56:19;;;;;;;37.63;18.00;;;20.40;41.00;;;;;;4999257;28;88418;-70
2022/03/05 02:58:47;;;;;;;38.13;19.47;;;20.30;40.80;;;;;;4999439;28;88460;-70
2022/03/05 03:01:15;;;;;;;30.77;15.30;;;20.30;40.70;;;;;;4998993;28;90696;-69
2022/03/05 03:03:43;;;;;;;30.63;16.73;;;20.30;40.60;;;;;;4999255;28;89117;-70
2022/03/05 03:06:11;;;;;;;31.03;15.70;;;20.30;40.50;;;;;;4998817;28;88578;-69
2022/03/05 03:08:39;;;;;;;29.13;13.83;;;20.20;40.30;;;;;;4999484;28;88625;-70
2022/03/05 03:11:07;;;;;;;26.00;14.53;;;20.20;40.30;;;;;;4999577;28;89405;-70
2022/03/05 03:13:37;;;;;;;20.03;11.77;;;20.20;40.20;;;;;;4999677;28;88398;-70
2022/03/05 03:16:05;;;;;;;21.47;11.60;;;20.10;40.10;;;;;;4999284;28;88447;-69
2022/03/05 03:18:33;;;;;;;22.97;11.80;;;20.10;40.00;;;;;;4998213;28;88598;-70
2022/03/05 03:21:01;;;;;;;22.50;11.50;;;20.10;39.90;;;;;;4999292;28;90717;-69
2022/03/05 03:23:29;;;;;;;20.53;11.03;;;20.10;39.90;;;;;;4999484;28;90068;-69
2022/03/05 03:25:57;;;;;;;20.63;10.60;;;20.00;39.70;;;;;;4999697;28;88299;-69
2022/03/05 03:28:25;;;;;;;19.67;10.03;;;20.00;39.70;;;;;;4998718;28;88450;-70
2022/03/05 03:30:54;;;;;;;16.40;9.43;;;20.00;39.60;;;;;;4999292;28;90251;-69
2022/03/05 03:33:22;;;;;;;22.57;9.50;;;20.00;39.60;;;;;;4999976;28;90003;-69
2022/03/05 03:35:50;;;;;;;17.77;9.10;;;20.00;39.50;;;;;;5000346;28;88271;-69
2022/03/05 03:38:18;;;;;;;15.63;7.63;;;19.90;39.40;;;;;;4999946;28;89523;-69
2022/03/05 03:40:46;;;;;;;15.27;7.90;;;19.90;40.00;;;;;;5002582;28;90044;-69
2022/03/05 03:43:14;;;;;;;14.47;7.70;;;19.90;39.30;;;;;;5003098;28;89477;-71
2022/03/05 03:45:42;;;;;;;12.67;7.83;;;19.90;39.30;;;;;;5003533;28;88417;-71
2022/03/05 03:48:11;;;;;;;12.93;7.77;;;19.90;39.30;;;;;;5002982;28;88568;-69
2022/03/05 03:50:39;;;;;;;12.10;6.93;;;19.80;39.20;;;;;;5003117;28;90232;-71
2022/03/05 03:53:07;;;;;;;16.77;7.23;;;19.80;39.80;;;;;;5003112;28;89013;-71
2022/03/05 03:55:35;;;;;;;12.40;7.27;;;19.80;39.10;;;;;;5003404;28;88442;-71
2022/03/05 03:58:03;;;;;;;9.77;5.77;;;19.80;39.10;;;;;;5002818;28;88643;-70
2022/03/05 04:00:31;;;;;;;10.47;6.13;;;19.80;39.10;;;;;;5002958;28;90928;-71
2022/03/05 04:02:59;;;;;;;9.47;6.50;;;19.70;38.90;;;;;;5002753;28;89924;-71
2022/03/05 04:05:29;;;;;;;7.73;4.93;;;19.70;39.00;;;;;;5003575;28;88459;-71
2022/03/05 04:10:42;;;;;;;11.93;5.20;;;19.70;38.90;;;;;;5002873;28;92284;-71
2022/03/05 04:13:10;;;;;;;10.10;5.67;;;19.70;38.80;;;;;;5002782;28;89961;-71
2022/03/05 04:15:38;;;;;;;9.17;5.17;;;19.70;38.80;;;;;;5002630;28;88409;-71
2022/03/05 04:18:06;;;;;;;8.13;5.07;;;19.60;38.70;;;;;;5001932;28;88521;-70
2022/03/05 04:20:35;;;;;;;8.83;5.77;;;19.60;38.70;;;;;;5002662;28;90110;-71
2022/03/05 04:23:03;;;;;;;9.67;4.63;;;19.60;38.70;;;;;;5002119;28;90002;-71
2022/03/05 04:25:31;;;;;;;8.83;5.37;;;19.60;38.60;;;;;;5002984;28;88292;-71
2022/03/05 04:27:59;;;;;;;8.23;5.47;;;19.60;38.60;;;;;;5001639;28;88790;-71
2022/03/05 04:30:27;;;;;;;7.07;4.63;;;19.60;38.60;;;;;;5002777;28;90646;-71
2022/03/05 04:32:55;;;;;;;8.77;4.83;;;19.60;38.60;;;;;;5002302;28;88979;-71
2022/03/05 04:35:23;;;;;;;7.17;3.90;;;19.50;38.50;;;;;;5002643;28;88517;-71
2022/03/05 04:37:52;;;;;;;7.93;4.70;;;19.50;38.50;;;;;;5002321;28;88611;-71
2022/03/05 04:40:20;;;;;;;6.23;3.90;;;19.50;38.50;;;;;;5001563;28;89713;-71
2022/03/05 04:42:48;;;;;;;7.77;4.30;;;19.60;38.60;;;;;;5002243;28;88904;-71
2022/03/05 04:45:16;;;;;;;6.03;4.37;;;19.50;38.50;;;;;;5002054;28;88553;-71
2022/03/05 04:47:44;;;;;;;7.80;4.27;;;19.50;38.50;;;;;;5001356;28;88820;-70
2022/03/05 04:50:12;;;;;;;5.13;3.77;;;19.50;38.50;;;;;;5001473;28;89555;-70
2022/03/05 04:52:40;;;;;;;7.97;4.20;;;19.40;38.40;;;;;;5002411;28;91030;-71
2022/03/05 04:55:10;;;;;;;5.87;3.07;;;19.40;38.40;;;;;;5002465;28;88480;-71
2022/03/05 04:57:38;;;;;;;7.50;3.70;;;19.40;38.40;;;;;;5002295;28;88494;-71
2022/03/05 05:00:08;;;;;;;4.87;3.07;;;19.40;38.40;;;;;;5002922;28;93843;-71
2022/03/05 05:02:36;;;;;;;7.60;3.53;;;19.40;38.40;;;;;;4996462;28;89921;-71
2022/03/05 05:05:05;;;;;;;5.57;3.47;;;19.40;38.40;;;;;;5002318;28;88308;-71
2022/03/05 05:07:33;;;;;;;5.73;3.47;;;19.30;38.40;;;;;;5002165;28;88350;-71
2022/03/05 05:10:01;;;;;;;5.33;3.30;;;19.30;38.40;;;;;;5002354;28;90613;-70
2022/03/05 05:12:30;;;;;;;6.40;3.33;;;19.30;38.40;;;;;;5002092;28;90044;-70
2022/03/05 05:14:58;;;;;;;6.93;3.27;;;19.30;38.40;;;;;;5001654;28;88312;-71
2022/03/05 05:17:26;;;;;;;6.07;3.50;;;19.40;38.40;;;;;;5002210;28;88406;-71
2022/03/05 05:19:54;;;;;;;3.83;3.07;;;19.30;38.40;;;;;;5002206;28;90120;-71
2022/03/05 05:22:22;;;;;;;5.80;3.27;;;19.20;38.30;;;;;;5002047;28;90073;-71
2022/03/05 05:24:50;;;;;;;5.13;3.37;;;19.20;38.30;;;;;;5001576;28;88316;-71
2022/03/05 05:27:18;;;;;;;4.63;3.10;;;19.20;38.30;;;;;;5000675;28;88669;-71
2022/03/05 05:29:47;;;;;;;5.60;3.30;;;19.20;38.30;;;;;;5001586;28;90841;-70
2022/03/05 05:32:15;;;;;;;6.10;3.47;;;19.20;38.30;;;;;;5001289;28;90139;-71
2022/03/05 05:34:43;;;;;;;4.53;3.07;;;19.20;39.00;;;;;;5001247;28;88428;-70
2022/03/05 05:37:15;;;;;;;4.90;2.80;;;19.20;38.30;;;;;;5002071;28;89043;-70
2022/03/05 05:39:43;;;;;;;6.90;2.73;;;19.20;38.30;;;;;;5001338;28;89513;-70
2022/03/05 05:42:11;;;;;;;3.87;2.70;;;19.20;38.30;;;;;;5001378;28;89918;-71
2022/03/05 05:44:39;;;;;;;4.80;2.67;;;19.10;38.30;;;;;;5001624;28;88371;-71
2022/03/05 05:47:10;;;;;;;4.60;3.00;;;19.10;38.50;;;;;;5001925;28;88459;-71
2022/03/05 05:49:38;;;;;;;4.23;3.00;;;19.10;38.30;;;;;;5001403;28;89587;-71
2022/03/05 05:52:07;;;;;;;4.63;3.03;;;19.10;38.30;;;;;;5001560;28;89483;-71
2022/03/05 05:54:35;;;;;;;3.43;2.43;;;19.10;38.30;;;;;;5000874;28;88576;-70
2022/03/05 05:57:04;;;;;;;4.30;2.30;;;19.10;38.30;;;;;;5000639;28;88455;-71
2022/03/05 05:59:32;;;;;;;4.10;3.10;;;19.10;38.30;;;;;;5000696;28;89982;-71
2022/03/05 06:02:00;;;;;;;3.00;2.30;;;19.10;38.30;;;;;;4999933;28;88996;-71
2022/03/05 06:04:29;;;;;;;6.37;2.43;;;19.10;38.30;;;;;;5001195;28;88470;-71
2022/03/05 06:06:58;;;;;;;3.33;2.57;;;19.00;38.20;;;;;;5001452;28;88477;-71
2022/03/05 06:09:26;;;;;;;5.33;2.83;;;19.00;38.20;;;;;;5001503;28;90713;-70
2022/03/05 06:11:54;;;;;;;3.07;2.03;;;19.00;38.20;;;;;;5001602;28;90031;-70
2022/03/05 06:14:22;;;;;;;5.20;2.33;;;19.00;38.90;;;;;;5001387;28;88350;-70
2022/03/05 06:16:50;;;;;;;4.60;2.40;;;19.00;38.20;;;;;;5000937;28;88510;-70
2022/03/05 06:19:18;;;;;;;4.83;2.33;;;19.00;38.20;;;;;;5000963;28;90402;-71
2022/03/05 06:21:47;;;;;;;3.17;2.40;;;19.00;38.20;;;;;;5000675;28;88572;-71
2022/03/05 06:24:15;;;;;;;4.50;3.03;;;18.90;38.20;;;;;;5000644;28;88295;-71
2022/03/05 06:26:43;;;;;;;3.73;2.40;;;18.90;38.20;;;;;;5000845;28;88545;-71
2022/03/05 06:29:11;;;;;;;5.07;2.43;;;18.90;38.20;;;;;;5000920;28;94077;-71
2022/03/05 06:31:39;;;;;;;3.73;2.70;;;18.90;38.20;;;;;;5000297;28;89081;-71
2022/03/05 06:34:07;;;;;;;3.67;2.50;;;18.90;38.20;;;;;;5000793;28;88603;-70
2022/03/05 06:36:35;;;;;;;4.43;2.00;;;18.90;38.30;;;;;;5000303;28;88676;-70
2022/03/05 06:39:05;;;;;;;3.03;2.30;;;18.90;38.20;;;;;;5000428;28;93524;-71
2022/03/05 06:41:33;;;;;;;4.23;2.57;;;18.80;38.10;;;;;;5000477;28;90307;-70
2022/03/05 06:44:01;;;;;;;3.53;2.43;;;18.80;38.20;;;;;;5001211;28;88192;-70
2022/03/05 06:46:29;;;;;;;3.07;1.90;;;18.80;38.20;;;;;;5000670;28;88462;-71
2022/03/05 06:48:57;;;;;;;2.53;2.00;;;18.80;38.20;;;;;;5000330;28;93294;-71
2022/03/05 06:51:25;;;;;;;2.53;2.10;;;18.80;38.20;;;;;;5000013;28;89117;-71
2022/03/05 06:53:53;;;;;;;2.90;2.23;;;18.80;38.20;;;;;;5000585;28;88377;-71
2022/03/05 06:56:22;;;;;;;2.83;2.07;;;18.80;38.20;;;;;;5000403;28;88464;-70
2022/03/05 06:58:50;;;;;;;4.80;2.70;;;18.80;38.20;;;;;;5001063;28;90615;-71
2022/03/05 07:01:18;;;;;;;3.30;2.40;;;18.80;38.20;;;;;;5000846;28;89422;-71
2022/03/05 07:03:47;;;;;;;5.97;2.97;;;18.80;38.10;;;;;;5000090;28;88442;-71
2022/03/05 07:06:15;;;;;;;4.33;2.43;;;18.90;38.80;;;;;;5000106;28;88426;-71
2022/03/05 07:08:43;;;;;;;3.10;2.20;;;18.90;38.10;;;;;;5000154;28;89597;-71
2022/03/05 07:11:11;;;;;;;4.03;1.90;;;19.10;38.20;;;;;;5000879;28;90116;-71
2022/03/05 07:13:40;;;;;;;3.23;2.43;;;19.20;38.10;;;;;;5000530;28;88444;-70
2022/03/05 07:16:08;;;;;;;4.80;2.57;;;19.30;38.00;;;;;;5003062;28;88513;-71
2022/03/05 07:18:36;;;;;;;3.77;2.20;;;19.40;37.90;;;;;;5003936;28;90635;-70
2022/03/05 07:21:04;;;;;;;5.33;2.80;;;19.50;37.80;;;;;;5004361;28;89260;-71
2022/03/05 07:23:32;;;;;;;4.27;2.77;;;19.60;37.80;;;;;;5004314;28;88390;-70
2022/03/05 07:26:00;;;;;;;4.47;2.50;;;19.60;37.70;;;;;;5003249;28;88640;-71
2022/03/05 07:28:28;;;;;;;3.83;2.20;;;19.70;37.80;;;;;;5004065;28;92647;-70
2022/03/05 07:30:57;;;;;;;3.80;2.23;;;19.70;37.70;;;;;;5003444;28;89961;-71
2022/03/05 07:33:27;;;;;;;2.77;2.40;;;19.70;37.70;;;;;;5003774;28;88446;-71
2022/03/05 07:35:55;;;;;;;3.57;2.53;;;19.70;37.70;;;;;;5003585;28;88509;-71
2022/03/05 07:38:23;;;;;;;6.90;2.67;;;19.70;37.70;;;;;;5003994;28;89473;-71
2022/03/05 07:40:51;;;;;;;3.37;2.00;;;19.60;37.60;;;;;;5003266;28;91986;-71
2022/03/05 07:43:19;;;;;;;3.13;2.07;;;19.60;37.70;;;;;;5003496;28;88437;-70
2022/03/05 07:45:47;;;;;;;3.60;2.80;;;19.60;37.60;;;;;;5003282;28;88470;-71
2022/03/05 07:48:19;;;;;;;3.77;2.37;;;19.60;37.70;;;;;;5003248;28;89919;-71
2022/03/05 07:50:47;;;;;;;2.87;2.23;;;19.60;37.70;;;;;;5003257;28;91633;-71
2022/03/05 07:53:15;;;;;;;4.77;3.23;;;19.50;37.60;;;;;;5003599;28;88544;-71
2022/03/05 07:55:43;;;;;;;3.90;2.23;;;19.50;37.60;;;;;;5002952;28;88541;-71
2022/03/05 07:58:11;;;;;;;5.13;1.93;;;19.50;37.70;;;;;;5003875;28;89349;-71
2022/03/05 08:00:39;;;;;;;4.10;2.03;;;19.40;37.60;;;;;;5002849;28;89257;-71
2022/03/05 08:03:07;;;;;;;4.13;2.30;;;19.40;37.60;;;;;;5002600;28;88519;-70
2022/03/05 08:05:37;;;;;;;3.23;2.10;;;19.40;37.60;;;;;;5003120;28;88468;-70
2022/03/05 08:08:05;;;;;;;2.90;2.20;;;19.40;37.60;;;;;;5002432;28;88585;-69
2022/03/05 08:10:33;;;;;;;2.33;1.97;;;19.30;37.60;;;;;;5001677;28;89129;-70
2022/03/05 08:13:02;;;;;;;3.77;2.60;;;19.30;37.60;;;;;;5001934;28;88240;-70
2022/03/05 08:15:30;;;;;;;3.20;2.10;;;19.30;37.70;;;;;;5001965;28;89609;-70
2022/03/05 08:17:59;;;;;;;4.23;2.60;;;19.30;37.70;;;;;;5002016;28;93166;-71
2022/03/05 08:20:28;;;;;;;4.37;2.60;;;19.30;37.70;;;;;;5001447;28;89479;-71
2022/03/05 08:22:57;;;;;;;2.27;1.80;;;19.30;37.70;;;;;;5001318;28;91732;-71
2022/03/05 08:25:26;;;;;;;2.77;2.17;;;19.20;37.60;;;;;;5000588;28;88497;-71
2022/03/05 08:27:54;;;;;;;4.93;2.90;;;19.20;37.60;;;;;;5001054;28;93728;-70
2022/03/05 08:30:22;;;;;;;4.43;2.70;;;19.20;37.70;;;;;;5001488;28;89992;-70
2022/03/05 08:32:50;;;;;;;3.33;2.73;;;19.20;37.60;;;;;;5001006;28;88334;-71
2022/03/05 08:35:18;;;;;;;5.93;3.27;;;19.40;37.80;;;;;;5000072;28;88779;-70
2022/03/05 08:37:46;;;;;;;5.27;2.43;;;19.20;37.60;;;;;;5000183;28;89017;-71
2022/03/05 08:40:15;;;;;;;3.57;2.93;;;19.20;37.50;;;;;;5001712;28;89024;-71
2022/03/05 08:42:44;;;;;;;4.03;2.97;;;19.10;37.50;;;;;;5001613;28;89103;-71
2022/03/05 08:45:12;;;;;;;3.80;2.50;;;19.10;37.50;;;;;;5001312;28;88537;-71
2022/03/05 08:47:40;;;;;;;4.67;2.73;;;19.20;37.50;;;;;;5001086;28;90608;-70
2022/03/05 08:50:08;;;;;;;4.10;2.83;;;19.10;37.50;;;;;;5001524;28;89270;-70
2022/03/05 08:52:36;;;;;;;4.00;2.23;;;19.10;37.40;;;;;;5000584;28;88953;-70
2022/03/05 08:55:05;;;;;;;5.13;3.20;;;19.10;37.40;;;;;;5000860;28;88731;-70
2022/03/05 08:57:35;;;;;;;3.77;2.60;;;19.10;37.40;;;;;;5000616;28;93518;-69
2022/03/05 09:00:05;;;;;;;3.07;2.27;;;19.10;37.40;;;;;;5000485;28;88371;-70
2022/03/05 09:02:33;;;;;;;4.20;3.00;;;19.10;37.40;;;;;;5001185;28;89067;-70
2022/03/05 09:05:01;;;;;;;4.90;2.90;;;19.10;37.40;;;;;;5001090;28;88466;-70
2022/03/05 09:07:29;;;;;;;3.97;2.83;;;19.10;37.40;;;;;;5001005;28;89353;-71
2022/03/05 09:09:57;;;;;;;4.40;2.50;;;19.10;37.40;;;;;;5000582;28;89992;-71
2022/03/05 09:12:25;;;;;;;6.07;2.83;;;19.10;37.30;;;;;;5000786;28;89913;-71
2022/03/05 09:14:55;;;;;;;3.93;2.67;;;19.10;37.40;;;;;;5000981;28;88452;-71
2022/03/05 09:17:23;;;;;;;5.20;2.93;;;19.10;37.30;;;;;;5000297;28;90371;-71
2022/03/05 09:19:51;;;;;;;4.17;2.77;;;19.10;37.30;;;;;;5001163;28;89189;-71
2022/03/05 09:22:19;;;;;;;3.93;2.60;;;19.00;37.20;;;;;;5000648;28;88868;-71
2022/03/05 09:24:47;;;;;;;4.10;2.70;;;19.00;37.20;;;;;;5001275;28;88454;-70
2022/03/05 09:27:15;;;;;;;3.90;2.63;;;19.00;37.20;;;;;;4999432;28;89726;-70
2022/03/05 09:29:43;;;;;;;5.37;2.90;;;19.00;37.20;;;;;;5001006;28;88446;-71
2022/03/05 09:32:13;;;;;;;3.37;2.40;;;19.00;37.20;;;;;;5000509;28;88376;-71
2022/03/05 09:34:41;;;;;;;6.27;2.80;;;19.00;37.20;;;;;;5000075;28;88374;-70
2022/03/05 09:37:09;;;;;;;5.53;2.93;;;19.00;37.20;;;;;;5000011;28;89405;-70
2022/03/05 09:39:37;;;;;;;4.97;2.80;;;19.00;37.20;;;;;;5000482;28;90139;-71
2022/03/05 09:42:06;;;;;;;4.20;2.63;;;19.00;37.10;;;;;;5000180;28;88472;-69
2022/03/05 09:44:34;;;;;;;6.93;3.43;;;19.00;37.10;;;;;;5000008;28;88390;-70
2022/03/05 09:47:03;;;;;;;5.80;3.10;;;19.00;37.10;;;;;;5000031;28;89474;-71
2022/03/05 09:49:35;;;;;;;4.00;2.87;;;19.00;37.10;;;;;;5000397;28;90103;-70
2022/03/05 09:52:03;;;;;;;2.50;2.07;;;19.00;37.10;;;;;;5000441;28;88870;-70
2022/03/05 09:54:31;;;;;;;3.83;2.60;;;19.00;37.10;;;;;;4999979;28;88404;-70
2022/03/05 09:56:59;;;;;;;3.73;2.83;;;19.00;37.10;;;;;;4999012;28;93380;-70
2022/03/05 09:59:27;;;;;;;5.97;3.10;;;19.00;37.10;;;;;;5000273;28;89639;-71
2022/03/05 10:01:55;;;;;;;5.37;3.23;;;19.00;37.20;;;;;;4999763;28;89841;-70
2022/03/05 10:04:25;;;;;;;6.23;3.40;;;19.00;37.40;;;;;;5000294;28;88606;-70
2022/03/05 10:07:08;;;;;;;4.23;2.97;;;19.00;37.80;;;;;;4999317;28;90605;-69
2022/03/05 10:09:36;;;;;;;21.83;3.07;;;19.00;38.10;;;;;;4998948;28;90095;-69
2022/03/05 10:12:25;;;;;;;5.37;3.03;;;19.00;38.30;;;;;;4996720;28;88512;-70
2022/03/05 10:15:09;;;;;;;15.83;3.43;;;19.00;38.50;;;;;;4999148;28;88869;-70
2022/03/05 10:17:51;;;;;;;13.00;3.23;;;19.00;38.90;;;;;;5000168;28;90964;-69
2022/03/05 10:20:19;;;;;;;6.37;3.27;;;19.00;39.20;;;;;;5000260;28;88236;-69
2022/03/05 10:23:04;;;;;;;9.13;3.90;;;19.10;39.60;;;;;;4999552;28;89115;-70
2022/03/05 10:25:37;;;;;;;8.50;3.43;;;19.00;39.90;;;;;;4999060;28;89733;-69
2022/03/05 10:28:10;;;;;;;8.20;3.53;;;19.10;40.20;;;;;;4980139;28;90712;-68
2022/03/05 10:30:39;;;;;;;12.23;4.20;;;19.10;40.40;;;;;;4979981;28;91892;-68
2022/03/05 10:33:07;;;;;;;6.50;3.60;;;19.10;40.60;;;;;;4979850;28;88893;-69
2022/03/05 10:35:35;;;;;;;6.17;3.23;;;19.10;40.70;;;;;;4991433;28;88652;-70
2022/03/05 10:38:05;;;;;;;4.87;3.23;;;19.10;41.00;;;;;;4999262;28;90584;-69
2022/03/05 10:40:35;;;;;;;7.17;4.00;;;19.00;41.00;;;;;;4998304;28;89027;-69
2022/03/05 10:43:05;;;;;;;8.30;3.37;;;19.10;41.20;;;;;;4998898;28;88275;-68
2022/03/05 10:45:49;;;;;;;13.20;4.30;;;19.10;41.30;;;;;;4999251;28;88615;-69
2022/03/05 10:48:27;;;;;;;6.57;3.50;;;19.00;41.40;;;;;;4998161;28;90390;-70
2022/03/05 10:50:59;;;;;;;7.47;3.57;;;19.00;41.50;;;;;;4998706;28;90123;-70
2022/03/05 10:53:42;;;;;;;7.53;3.47;;;19.00;41.50;;;;;;4998579;28;88743;-71
2022/03/05 10:56:23;;;;;;;5.37;3.77;;;19.10;41.60;;;;;;4997507;28;88621;-71
2022/03/05 10:59:08;;;;;;;5.43;3.53;;;19.10;41.50;;;;;;4998676;28;90882;-71
2022/03/05 11:01:39;;;;;;;6.57;3.70;;;19.10;41.50;;;;;;4999385;28;90150;-71
2022/03/05 11:04:08;;;;;;;10.50;3.30;;;19.10;42.10;;;;;;4997795;28;88421;-71
2022/03/05 11:06:37;;;;;;;5.77;3.30;;;19.10;42.10;;;;;;4999064;28;88729;-71
2022/03/05 11:09:06;;;;;;;6.37;3.17;;;19.10;41.40;;;;;;4999111;28;93882;-71
2022/03/05 11:11:36;;;;;;;9.27;4.00;;;19.10;41.40;;;;;;4998202;28;89695;-71
2022/03/05 11:14:06;;;;;;;9.07;4.27;;;19.10;41.30;;;;;;4998727;28;88861;-71
2022/03/05 11:16:34;;;;;;;5.47;3.00;;;19.10;41.30;;;;;;4998923;28;88481;-71
2022/03/05 11:19:02;;;;;;;6.77;3.27;;;19.10;41.20;;;;;;4998772;28;90072;-71
2022/03/05 11:21:30;;;;;;;7.37;3.50;;;19.20;41.30;;;;;;4999011;28;89961;-71
2022/03/05 11:23:58;;;;;;;8.17;3.63;;;19.20;41.20;;;;;;4997629;28;88518;-71
2022/03/05 11:26:29;;;;;;;7.90;3.70;;;19.20;41.20;;;;;;4999154;28;88483;-71
2022/03/05 11:29:19;;;;;;;4.87;3.13;;;19.10;41.10;;;;;;4998709;28;90426;-71
2022/03/05 11:31:47;;;;;;;7.73;3.77;;;19.20;41.10;;;;;;4998186;28;88987;-71
2022/03/05 11:34:18;;;;;;;7.60;3.13;;;19.20;41.10;;;;;;4998229;28;89158;-71
2022/03/05 11:36:46;;;;;;;7.73;3.87;;;19.20;41.10;;;;;;4999224;28;88316;-71
2022/03/05 11:39:18;;;;;;;9.83;4.07;;;19.20;41.00;;;;;;4998528;28;90730;-72
2022/03/05 11:41:53;;;;;;;4.77;3.47;;;19.20;40.90;;;;;;4998468;28;90151;-72
2022/03/05 11:44:22;;;;;;;6.23;2.97;;;19.20;40.90;;;;;;4997501;28;88821;-71
2022/03/05 11:46:50;;;;;;;5.83;3.43;;;19.20;40.80;;;;;;4998580;28;88437;-71
2022/03/05 11:49:18;;;;;;;5.63;3.07;;;19.20;40.80;;;;;;4998198;28;90670;-71
2022/03/05 11:51:54;;;;;;;5.37;2.90;;;19.20;41.40;;;;;;4998819;28;92240;-71
2022/03/05 11:54:22;;;;;;;5.87;2.53;;;19.20;40.70;;;;;;4998014;28;89049;-70
2022/03/05 11:57:11;;;;;;;6.43;3.10;;;19.20;40.70;;;;;;4998789;28;88272;-71
2022/03/05 11:59:39;;;;;;;5.20;3.37;;;19.20;40.60;;;;;;4998148;28;89704;-71
2022/03/05 12:02:07;;;;;;;4.97;3.43;;;19.20;40.60;;;;;;5001178;28;89676;-71
2022/03/05 12:04:35;;;;;;;5.47;3.10;;;19.20;40.60;;;;;;4991399;28;89687;-71
2022/03/05 12:07:05;;;;;;;4.10;2.73;;;19.20;40.50;;;;;;4981558;28;88625;-71
2022/03/05 12:09:37;;;;;;;4.73;3.07;;;19.20;40.50;;;;;;4982219;28;90141;-71
2022/03/05 12:12:08;;;;;;;5.70;3.70;;;19.20;40.40;;;;;;4981701;28;90045;-71
2022/03/05 12:15:10;;;;;;;5.03;3.07;;;19.20;40.30;;;;;;4991946;28;88300;-71
2022/03/05 12:17:43;;;;;;;5.17;3.60;;;19.20;40.30;;;;;;5001698;28;88489;-71
2022/03/05 12:20:12;;;;;;;6.80;3.40;;;19.20;40.20;;;;;;5001204;28;92814;-71
2022/03/05 12:22:57;;;;;;;6.20;3.63;;;19.30;40.30;;;;;;5001627;28;89675;-71
2022/03/05 12:25:26;;;;;;;4.33;3.10;;;19.20;40.20;;;;;;5001138;28;89088;-71
2022/03/05 12:27:55;;;;;;;4.90;3.10;;;19.20;40.20;;;;;;5001577;28;88588;-71
2022/03/05 12:30:25;;;;;;;6.27;3.40;;;19.20;40.10;;;;;;5000787;28;89633;-71
2022/03/05 12:32:55;;;;;;;4.27;2.83;;;19.20;40.10;;;;;;5001499;28;90071;-71
2022/03/05 12:35:24;;;;;;;5.10;2.93;;;19.30;40.10;;;;;;5001497;28;88534;-71
2022/03/05 12:37:52;;;;;;;5.50;3.20;;;19.30;40.10;;;;;;5001323;28;88466;-71
2022/03/05 12:40:20;;;;;;;6.67;3.33;;;19.30;40.10;;;;;;5000835;28;88388;-71
2022/03/05 12:42:48;;;;;;;5.17;3.00;;;19.30;40.00;;;;;;5000222;28;89980;-71
2022/03/05 12:45:19;;;;;;;5.53;2.97;;;19.30;40.10;;;;;;5001065;28;88883;-71
2022/03/05 12:47:48;;;;;;;6.83;3.33;;;19.30;40.00;;;;;;5000443;28;88802;-71
2022/03/05 12:50:34;;;;;;;6.10;3.03;;;19.40;40.00;;;;;;5001215;28;90723;-71